sensor_id;sensor_type;location;lat;lon;timestamp;P1;durP1;ratioP1;P2;durP2;ratioP2
44670;SDS011;48397;53.016;-2.260;2022-07-06T00:00:06;11.43;;;4.95;;
44670;SDS011;48397;53.016;-2.260;2022-07-06T00:02:35;12.68;;;6.10;;
44670;SDS011;48397;53.016;-2.260;2022-07-06T00:09:58;7.55;;;4.38;;
44670;SDS011;48397;53.016;-2.260;2022-07-06T00:12:26;10.18;;;4.22;;
44670;SDS011;48397;53.016;-2.260;2022-07-06T00:14:54;9.68;;;4.95;;
44670;SDS011;48397;53.016;-2.260;2022-07-06T00:17:22;10.07;;;5.38;;
44670;SDS011;48397;53.016;-2.260;2022-07-06T00:19:50;8.25;;;3.85;;
44670;SDS011;48397;53.016;-2.260;2022-07-06T00:24:46;11.85;;;6.35;;
44670;SDS011;48397;53.016;-2.260;2022-07-06T00:27:13;12.93;;;5.65;;
44670;SDS011;48397;53.016;-2.260;2022-07-06T00:29:41;11.45;;;5.90;;
44670;SDS011;48397;53.016;-2.260;2022-07-06T00:32:11;12.05;;;6.25;;
44670;SDS011;48397;53.016;-2.260;2022-07-06T00:37:06;11.00;;;5.13;;
44670;SDS011;48397;53.016;-2.260;2022-07-06T00:41:18;8.00;;;5.38;;
44670;SDS011;48397;53.016;-2.260;2022-07-06T00:43:49;9.23;;;4.95;;
44670;SDS011;48397;53.016;-2.260;2022-07-06T00:46:27;7.85;;;4.53;;
44670;SDS011;48397;53.016;-2.260;2022-07-06T00:48:57;9.60;;;5.47;;
44670;SDS011;48397;53.016;-2.260;2022-07-06T00:51:29;8.65;;;5.35;;
44670;SDS011;48397;53.016;-2.260;2022-07-06T00:53:59;11.57;;;7.03;;
44670;SDS011;48397;53.016;-2.260;2022-07-06T00:56:31;12.73;;;7.47;;
44670;SDS011;48397;53.016;-2.260;2022-07-06T00:59:00;11.68;;;6.50;;
44670;SDS011;48397;53.016;-2.260;2022-07-06T01:01:28;11.45;;;7.43;;
44670;SDS011;48397;53.016;-2.260;2022-07-06T01:03:57;13.52;;;7.97;;
44670;SDS011;48397;53.016;-2.260;2022-07-06T01:06:25;12.25;;;7.38;;
44670;SDS011;48397;53.016;-2.260;2022-07-06T01:08:52;15.10;;;8.35;;
44670;SDS011;48397;53.016;-2.260;2022-07-06T01:11:21;14.57;;;7.85;;
44670;SDS011;48397;53.016;-2.260;2022-07-06T01:13:49;11.50;;;6.93;;
44670;SDS011;48397;53.016;-2.260;2022-07-06T01:16:17;12.07;;;6.25;;
44670;SDS011;48397;53.016;-2.260;2022-07-06T01:18:47;12.93;;;6.75;;
44670;SDS011;48397;53.016;-2.260;2022-07-06T01:21:15;10.40;;;6.22;;
44670;SDS011;48397;53.016;-2.260;2022-07-06T01:23:43;9.80;;;5.60;;
44670;SDS011;48397;53.016;-2.260;2022-07-06T01:26:15;10.63;;;6.47;;
44670;SDS011;48397;53.016;-2.260;2022-07-06T01:28:48;7.00;;;4.07;;
44670;SDS011;48397;53.016;-2.260;2022-07-06T01:31:21;10.98;;;5.72;;
44670;SDS011;48397;53.016;-2.260;2022-07-06T01:33:52;7.63;;;4.45;;
44670;SDS011;48397;53.016;-2.260;2022-07-06T01:36:21;9.82;;;5.65;;
44670;SDS011;48397;53.016;-2.260;2022-07-06T01:38:54;9.60;;;6.45;;
44670;SDS011;48397;53.016;-2.260;2022-07-06T01:41:25;8.73;;;5.32;;
44670;SDS011;48397;53.016;-2.260;2022-07-06T01:43:53;12.90;;;5.97;;
44670;SDS011;48397;53.016;-2.260;2022-07-06T01:46:21;10.70;;;6.55;;
44670;SDS011;48397;53.016;-2.260;2022-07-06T01:48:49;12.07;;;6.72;;
44670;SDS011;48397;53.016;-2.260;2022-07-06T01:51:17;10.82;;;6.70;;
44670;SDS011;48397;53.016;-2.260;2022-07-06T01:53:46;11.07;;;6.30;;
44670;SDS011;48397;53.016;-2.260;2022-07-06T01:56:17;10.80;;;6.70;;
44670;SDS011;48397;53.016;-2.260;2022-07-06T01:58:52;12.30;;;7.47;;
44670;SDS011;48397;53.016;-2.260;2022-07-06T02:01:21;11.25;;;6.40;;
44670;SDS011;48397;53.016;-2.260;2022-07-06T02:03:50;9.75;;;5.90;;
44670;SDS011;48397;53.016;-2.260;2022-07-06T02:06:17;11.23;;;6.70;;
44670;SDS011;48397;53.016;-2.260;2022-07-06T02:08:47;12.35;;;6.85;;
44670;SDS011;48397;53.016;-2.260;2022-07-06T02:11:15;10.38;;;6.00;;
44670;SDS011;48397;53.016;-2.260;2022-07-06T02:13:44;9.85;;;5.35;;
44670;SDS011;48397;53.016;-2.260;2022-07-06T02:18:40;7.13;;;4.18;;
44670;SDS011;48397;53.016;-2.260;2022-07-06T02:21:08;9.90;;;5.18;;
44670;SDS011;48397;53.016;-2.260;2022-07-06T02:23:36;8.73;;;4.10;;
44670;SDS011;48397;53.016;-2.260;2022-07-06T02:26:04;11.43;;;6.28;;
44670;SDS011;48397;53.016;-2.260;2022-07-06T02:28:33;11.65;;;6.43;;
44670;SDS011;48397;53.016;-2.260;2022-07-06T02:31:02;7.13;;;4.40;;
44670;SDS011;48397;53.016;-2.260;2022-07-06T02:33:30;9.27;;;5.82;;
44670;SDS011;48397;53.016;-2.260;2022-07-06T02:35:59;9.63;;;5.60;;
44670;SDS011;48397;53.016;-2.260;2022-07-06T02:40:56;6.72;;;3.95;;
44670;SDS011;48397;53.016;-2.260;2022-07-06T02:43:24;9.68;;;5.40;;
44670;SDS011;48397;53.016;-2.260;2022-07-06T02:48:20;11.43;;;5.75;;
44670;SDS011;48397;53.016;-2.260;2022-07-06T02:50:51;9.70;;;5.50;;
44670;SDS011;48397;53.016;-2.260;2022-07-06T02:53:19;10.15;;;5.68;;
44670;SDS011;48397;53.016;-2.260;2022-07-06T02:55:50;8.25;;;4.93;;
44670;SDS011;48397;53.016;-2.260;2022-07-06T02:58:19;10.30;;;5.88;;
44670;SDS011;48397;53.016;-2.260;2022-07-06T03:00:47;9.75;;;6.03;;
44670;SDS011;48397;53.016;-2.260;2022-07-06T03:03:15;10.55;;;5.85;;
44670;SDS011;48397;53.016;-2.260;2022-07-06T03:05:44;10.80;;;5.55;;
44670;SDS011;48397;53.016;-2.260;2022-07-06T03:08:15;10.25;;;5.88;;
44670;SDS011;48397;53.016;-2.260;2022-07-06T03:10:42;10.48;;;5.90;;
44670;SDS011;48397;53.016;-2.260;2022-07-06T03:13:11;9.57;;;5.78;;
44670;SDS011;48397;53.016;-2.260;2022-07-06T03:15:40;10.07;;;5.40;;
44670;SDS011;48397;53.016;-2.260;2022-07-06T03:18:09;10.13;;;4.63;;
44670;SDS011;48397;53.016;-2.260;2022-07-06T03:20:37;10.55;;;6.10;;
44670;SDS011;48397;53.016;-2.260;2022-07-06T03:23:08;10.45;;;5.68;;
44670;SDS011;48397;53.016;-2.260;2022-07-06T03:28:04;10.50;;;5.18;;
44670;SDS011;48397;53.016;-2.260;2022-07-06T03:30:32;10.20;;;5.78;;
44670;SDS011;48397;53.016;-2.260;2022-07-06T03:33:00;10.48;;;5.85;;
44670;SDS011;48397;53.016;-2.260;2022-07-06T03:35:29;8.07;;;4.97;;
44670;SDS011;48397;53.016;-2.260;2022-07-06T03:37:57;9.82;;;5.15;;
44670;SDS011;48397;53.016;-2.260;2022-07-06T03:40:28;11.32;;;5.88;;
44670;SDS011;48397;53.016;-2.260;2022-07-06T03:42:56;11.43;;;5.05;;
44670;SDS011;48397;53.016;-2.260;2022-07-06T03:45:26;10.63;;;5.40;;
44670;SDS011;48397;53.016;-2.260;2022-07-06T03:47:55;9.88;;;5.10;;
44670;SDS011;48397;53.016;-2.260;2022-07-06T03:50:24;8.93;;;4.95;;
44670;SDS011;48397;53.016;-2.260;2022-07-06T03:52:52;10.05;;;4.85;;
44670;SDS011;48397;53.016;-2.260;2022-07-06T03:55:21;8.98;;;4.65;;
44670;SDS011;48397;53.016;-2.260;2022-07-06T03:57:55;8.35;;;5.18;;
44670;SDS011;48397;53.016;-2.260;2022-07-06T04:00:23;8.73;;;4.75;;
44670;SDS011;48397;53.016;-2.260;2022-07-06T04:02:59;3.42;;;2.22;;
44670;SDS011;48397;53.016;-2.260;2022-07-06T04:05:31;8.07;;;4.03;;
44670;SDS011;48397;53.016;-2.260;2022-07-06T04:07:59;9.18;;;4.40;;
44670;SDS011;48397;53.016;-2.260;2022-07-06T04:10:35;7.10;;;3.47;;
44670;SDS011;48397;53.016;-2.260;2022-07-06T04:13:03;8.48;;;3.88;;
44670;SDS011;48397;53.016;-2.260;2022-07-06T04:15:31;9.32;;;3.95;;
44670;SDS011;48397;53.016;-2.260;2022-07-06T04:17:59;7.50;;;3.15;;
44670;SDS011;48397;53.016;-2.260;2022-07-06T04:20:32;5.93;;;3.90;;
44670;SDS011;48397;53.016;-2.260;2022-07-06T04:23:00;9.32;;;3.78;;
44670;SDS011;48397;53.016;-2.260;2022-07-06T04:25:29;6.40;;;2.70;;
44670;SDS011;48397;53.016;-2.260;2022-07-06T04:27:59;6.03;;;3.17;;
44670;SDS011;48397;53.016;-2.260;2022-07-06T04:30:29;5.75;;;2.25;;
44670;SDS011;48397;53.016;-2.260;2022-07-06T04:35:27;5.07;;;1.80;;
44670;SDS011;48397;53.016;-2.260;2022-07-06T04:37:56;3.35;;;1.75;;
44670;SDS011;48397;53.016;-2.260;2022-07-06T04:40:25;4.75;;;2.30;;
44670;SDS011;48397;53.016;-2.260;2022-07-06T04:42:58;6.18;;;1.65;;
44670;SDS011;48397;53.016;-2.260;2022-07-06T04:45:27;5.85;;;2.60;;
44670;SDS011;48397;53.016;-2.260;2022-07-06T04:47:55;4.43;;;1.52;;
44670;SDS011;48397;53.016;-2.260;2022-07-06T04:50:24;2.90;;;1.60;;
44670;SDS011;48397;53.016;-2.260;2022-07-06T04:52:54;3.42;;;1.38;;
44670;SDS011;48397;53.016;-2.260;2022-07-06T04:55:22;5.13;;;1.85;;
44670;SDS011;48397;53.016;-2.260;2022-07-06T04:57:51;2.70;;;1.20;;
44670;SDS011;48397;53.016;-2.260;2022-07-06T05:00:19;4.57;;;1.50;;
44670;SDS011;48397;53.016;-2.260;2022-07-06T05:02:49;6.35;;;2.10;;
44670;SDS011;48397;53.016;-2.260;2022-07-06T05:05:19;5.57;;;1.75;;
44670;SDS011;48397;53.016;-2.260;2022-07-06T05:07:49;6.35;;;2.10;;
44670;SDS011;48397;53.016;-2.260;2022-07-06T05:10:17;4.72;;;1.25;;
44670;SDS011;48397;53.016;-2.260;2022-07-06T05:12:48;3.45;;;1.75;;
44670;SDS011;48397;53.016;-2.260;2022-07-06T05:15:16;2.97;;;1.50;;
44670;SDS011;48397;53.016;-2.260;2022-07-06T05:17:45;4.85;;;1.42;;
44670;SDS011;48397;53.016;-2.260;2022-07-06T05:20:13;3.20;;;1.60;;
44670;SDS011;48397;53.016;-2.260;2022-07-06T05:22:44;3.03;;;1.35;;
44670;SDS011;48397;53.016;-2.260;2022-07-06T05:25:16;2.67;;;1.30;;
44670;SDS011;48397;53.016;-2.260;2022-07-06T05:30:12;4.45;;;1.70;;
44670;SDS011;48397;53.016;-2.260;2022-07-06T05:32:43;4.78;;;1.92;;
44670;SDS011;48397;53.016;-2.260;2022-07-06T05:35:11;2.00;;;1.40;;
44670;SDS011;48397;53.016;-2.260;2022-07-06T05:38:01;4.82;;;1.67;;
44670;SDS011;48397;53.016;-2.260;2022-07-06T05:40:29;4.95;;;1.65;;
44670;SDS011;48397;53.016;-2.260;2022-07-06T05:42:57;5.38;;;2.08;;
44670;SDS011;48397;53.016;-2.260;2022-07-06T05:45:26;3.33;;;1.42;;
44670;SDS011;48397;53.016;-2.260;2022-07-06T05:47:55;4.10;;;1.52;;
44670;SDS011;48397;53.016;-2.260;2022-07-06T05:50:42;2.83;;;1.57;;
44670;SDS011;48397;53.016;-2.260;2022-07-06T05:53:10;2.63;;;1.42;;
44670;SDS011;48397;53.016;-2.260;2022-07-06T05:55:47;3.17;;;1.60;;
44670;SDS011;48397;53.016;-2.260;2022-07-06T05:58:15;4.22;;;1.83;;
44670;SDS011;48397;53.016;-2.260;2022-07-06T06:00:45;3.13;;;1.63;;
44670;SDS011;48397;53.016;-2.260;2022-07-06T06:03:18;4.47;;;1.58;;
44670;SDS011;48397;53.016;-2.260;2022-07-06T06:05:48;4.38;;;1.90;;
44670;SDS011;48397;53.016;-2.260;2022-07-06T06:08:18;3.90;;;1.67;;
44670;SDS011;48397;53.016;-2.260;2022-07-06T06:10:46;5.47;;;1.75;;
44670;SDS011;48397;53.016;-2.260;2022-07-06T06:13:17;3.03;;;1.40;;
44670;SDS011;48397;53.016;-2.260;2022-07-06T06:15:45;4.72;;;2.25;;
44670;SDS011;48397;53.016;-2.260;2022-07-06T06:18:15;4.22;;;1.65;;
44670;SDS011;48397;53.016;-2.260;2022-07-06T06:20:46;6.15;;;1.63;;
44670;SDS011;48397;53.016;-2.260;2022-07-06T06:23:14;3.33;;;1.60;;
44670;SDS011;48397;53.016;-2.260;2022-07-06T06:25:42;2.40;;;1.33;;
44670;SDS011;48397;53.016;-2.260;2022-07-06T06:28:10;4.63;;;2.00;;
44670;SDS011;48397;53.016;-2.260;2022-07-06T06:30:38;2.13;;;1.60;;
44670;SDS011;48397;53.016;-2.260;2022-07-06T06:33:07;2.78;;;1.40;;
44670;SDS011;48397;53.016;-2.260;2022-07-06T06:35:46;4.20;;;2.08;;
44670;SDS011;48397;53.016;-2.260;2022-07-06T06:38:18;2.67;;;2.00;;
44670;SDS011;48397;53.016;-2.260;2022-07-06T06:40:48;3.28;;;1.63;;
44670;SDS011;48397;53.016;-2.260;2022-07-06T06:43:15;2.92;;;1.10;;
44670;SDS011;48397;53.016;-2.260;2022-07-06T06:46:04;6.22;;;2.33;;
44670;SDS011;48397;53.016;-2.260;2022-07-06T06:48:32;4.05;;;2.10;;
44670;SDS011;48397;53.016;-2.260;2022-07-06T06:51:00;4.28;;;2.55;;
44670;SDS011;48397;53.016;-2.260;2022-07-06T06:53:27;4.93;;;2.70;;
44670;SDS011;48397;53.016;-2.260;2022-07-06T06:56:00;5.15;;;2.03;;
44670;SDS011;48397;53.016;-2.260;2022-07-06T06:58:28;6.75;;;3.03;;
44670;SDS011;48397;53.016;-2.260;2022-07-06T07:03:43;4.38;;;2.53;;
44670;SDS011;48397;53.016;-2.260;2022-07-06T07:06:11;5.70;;;2.22;;
44670;SDS011;48397;53.016;-2.260;2022-07-06T07:08:38;2.83;;;1.75;;
44670;SDS011;48397;53.016;-2.260;2022-07-06T07:11:06;2.65;;;1.70;;
44670;SDS011;48397;53.016;-2.260;2022-07-06T07:13:34;5.60;;;2.95;;
44670;SDS011;48397;53.016;-2.260;2022-07-06T07:16:02;2.85;;;1.90;;
44670;SDS011;48397;53.016;-2.260;2022-07-06T07:18:30;5.90;;;2.53;;
44670;SDS011;48397;53.016;-2.260;2022-07-06T07:20:59;4.18;;;2.05;;
44670;SDS011;48397;53.016;-2.260;2022-07-06T07:23:27;3.33;;;1.70;;
44670;SDS011;48397;53.016;-2.260;2022-07-06T07:25:55;2.22;;;1.42;;
44670;SDS011;48397;53.016;-2.260;2022-07-06T07:28:23;1.95;;;1.27;;
44670;SDS011;48397;53.016;-2.260;2022-07-06T07:30:52;2.70;;;1.40;;
44670;SDS011;48397;53.016;-2.260;2022-07-06T07:33:20;2.85;;;1.60;;
44670;SDS011;48397;53.016;-2.260;2022-07-06T07:35:49;2.80;;;1.02;;
44670;SDS011;48397;53.016;-2.260;2022-07-06T07:38:16;3.25;;;1.88;;
44670;SDS011;48397;53.016;-2.260;2022-07-06T07:40:44;1.98;;;1.38;;
44670;SDS011;48397;53.016;-2.260;2022-07-06T07:45:39;2.20;;;1.40;;
44670;SDS011;48397;53.016;-2.260;2022-07-06T07:50:35;2.55;;;1.23;;
44670;SDS011;48397;53.016;-2.260;2022-07-06T07:53:02;2.90;;;1.42;;
44670;SDS011;48397;53.016;-2.260;2022-07-06T07:58:08;1.70;;;1.10;;
44670;SDS011;48397;53.016;-2.260;2022-07-06T08:00:36;0.85;;;0.63;;
44670;SDS011;48397;53.016;-2.260;2022-07-06T08:03:04;1.52;;;1.00;;
44670;SDS011;48397;53.016;-2.260;2022-07-06T08:05:32;1.42;;;1.00;;
44670;SDS011;48397;53.016;-2.260;2022-07-06T08:07:59;2.08;;;0.90;;
44670;SDS011;48397;53.016;-2.260;2022-07-06T08:12:56;1.67;;;1.40;;
44670;SDS011;48397;53.016;-2.260;2022-07-06T08:15:23;10.63;;;1.48;;
44670;SDS011;48397;53.016;-2.260;2022-07-06T08:17:52;2.90;;;1.30;;
44670;SDS011;48397;53.016;-2.260;2022-07-06T08:20:19;3.67;;;1.50;;
44670;SDS011;48397;53.016;-2.260;2022-07-06T08:22:47;2.03;;;1.58;;
44670;SDS011;48397;53.016;-2.260;2022-07-06T08:25:15;2.58;;;1.40;;
44670;SDS011;48397;53.016;-2.260;2022-07-06T08:27:44;1.80;;;1.20;;
44670;SDS011;48397;53.016;-2.260;2022-07-06T08:30:11;1.10;;;0.85;;
44670;SDS011;48397;53.016;-2.260;2022-07-06T08:32:40;2.28;;;1.25;;
44670;SDS011;48397;53.016;-2.260;2022-07-06T08:35:29;1.90;;;1.00;;
44670;SDS011;48397;53.016;-2.260;2022-07-06T08:37:57;2.08;;;0.80;;
44670;SDS011;48397;53.016;-2.260;2022-07-06T08:40:26;0.93;;;0.77;;
44670;SDS011;48397;53.016;-2.260;2022-07-06T08:42:58;3.13;;;1.05;;
44670;SDS011;48397;53.016;-2.260;2022-07-06T08:45:26;1.77;;;0.80;;
44670;SDS011;48397;53.016;-2.260;2022-07-06T08:47:56;1.02;;;0.75;;
44670;SDS011;48397;53.016;-2.260;2022-07-06T08:50:30;5.30;;;0.80;;
44670;SDS011;48397;53.016;-2.260;2022-07-06T08:52:59;2.95;;;1.23;;
44670;SDS011;48397;53.016;-2.260;2022-07-06T08:57:56;2.33;;;1.23;;
44670;SDS011;48397;53.016;-2.260;2022-07-06T09:00:25;1.88;;;1.30;;
44670;SDS011;48397;53.016;-2.260;2022-07-06T09:02:53;1.35;;;1.00;;
44670;SDS011;48397;53.016;-2.260;2022-07-06T09:05:24;2.60;;;1.00;;
44670;SDS011;48397;53.016;-2.260;2022-07-06T09:07:52;1.60;;;1.10;;
44670;SDS011;48397;53.016;-2.260;2022-07-06T09:10:26;1.90;;;1.20;;
44670;SDS011;48397;53.016;-2.260;2022-07-06T09:15:29;1.30;;;0.93;;
44670;SDS011;48397;53.016;-2.260;2022-07-06T09:17:57;1.38;;;0.90;;
44670;SDS011;48397;53.016;-2.260;2022-07-06T09:25:27;1.25;;;0.77;;
44670;SDS011;48397;53.016;-2.260;2022-07-06T09:27:56;2.22;;;1.00;;
44670;SDS011;48397;53.016;-2.260;2022-07-06T09:30:25;3.08;;;1.40;;
44670;SDS011;48397;53.016;-2.260;2022-07-06T09:32:55;2.97;;;1.25;;
44670;SDS011;48397;53.016;-2.260;2022-07-06T09:38:04;2.47;;;1.30;;
44670;SDS011;48397;53.016;-2.260;2022-07-06T09:40:42;1.40;;;0.80;;
44670;SDS011;48397;53.016;-2.260;2022-07-06T09:45:48;2.67;;;1.42;;
44670;SDS011;48397;53.016;-2.260;2022-07-06T09:48:19;4.95;;;1.30;;
44670;SDS011;48397;53.016;-2.260;2022-07-06T09:50:59;4.03;;;1.77;;
44670;SDS011;48397;53.016;-2.260;2022-07-06T09:53:35;2.90;;;0.98;;
44670;SDS011;48397;53.016;-2.260;2022-07-06T09:56:03;2.47;;;1.48;;
44670;SDS011;48397;53.016;-2.260;2022-07-06T09:58:32;1.80;;;1.10;;
44670;SDS011;48397;53.016;-2.260;2022-07-06T10:01:26;2.17;;;1.08;;
44670;SDS011;48397;53.016;-2.260;2022-07-06T10:03:55;4.72;;;1.42;;
44670;SDS011;48397;53.016;-2.260;2022-07-06T10:06:23;3.15;;;1.42;;
44670;SDS011;48397;53.016;-2.260;2022-07-06T10:08:55;6.53;;;1.38;;
44670;SDS011;48397;53.016;-2.260;2022-07-06T10:11:26;3.67;;;1.83;;
44670;SDS011;48397;53.016;-2.260;2022-07-06T10:13:56;4.63;;;1.90;;
44670;SDS011;48397;53.016;-2.260;2022-07-06T10:16:24;3.03;;;1.48;;
44670;SDS011;48397;53.016;-2.260;2022-07-06T10:18:53;3.67;;;1.50;;
44670;SDS011;48397;53.016;-2.260;2022-07-06T10:21:22;1.70;;;1.00;;
44670;SDS011;48397;53.016;-2.260;2022-07-06T10:23:50;5.90;;;1.33;;
44670;SDS011;48397;53.016;-2.260;2022-07-06T10:26:19;2.90;;;1.60;;
44670;SDS011;48397;53.016;-2.260;2022-07-06T10:28:50;2.53;;;1.30;;
44670;SDS011;48397;53.016;-2.260;2022-07-06T10:31:19;4.80;;;2.00;;
44670;SDS011;48397;53.016;-2.260;2022-07-06T10:33:48;4.50;;;1.77;;
44670;SDS011;48397;53.016;-2.260;2022-07-06T10:36:16;3.42;;;1.63;;
44670;SDS011;48397;53.016;-2.260;2022-07-06T10:41:15;1.70;;;1.10;;
44670;SDS011;48397;53.016;-2.260;2022-07-06T10:43:44;2.30;;;1.10;;
44670;SDS011;48397;53.016;-2.260;2022-07-06T10:46:14;2.92;;;1.58;;
44670;SDS011;48397;53.016;-2.260;2022-07-06T10:48:44;3.65;;;1.67;;
44670;SDS011;48397;53.016;-2.260;2022-07-06T10:51:12;3.58;;;1.55;;
44670;SDS011;48397;53.016;-2.260;2022-07-06T10:53:57;5.07;;;2.33;;
44670;SDS011;48397;53.016;-2.260;2022-07-06T10:56:37;4.25;;;1.70;;
44670;SDS011;48397;53.016;-2.260;2022-07-06T10:59:10;5.13;;;2.00;;
44670;SDS011;48397;53.016;-2.260;2022-07-06T11:01:41;4.32;;;1.58;;
44670;SDS011;48397;53.016;-2.260;2022-07-06T11:04:38;5.38;;;1.80;;
44670;SDS011;48397;53.016;-2.260;2022-07-06T11:09:38;6.50;;;1.88;;
44670;SDS011;48397;53.016;-2.260;2022-07-06T11:12:15;4.05;;;1.45;;
44670;SDS011;48397;53.016;-2.260;2022-07-06T11:14:47;2.20;;;1.35;;
44670;SDS011;48397;53.016;-2.260;2022-07-06T11:17:16;3.65;;;1.95;;
44670;SDS011;48397;53.016;-2.260;2022-07-06T11:19:48;5.20;;;1.73;;
44670;SDS011;48397;53.016;-2.260;2022-07-06T11:22:17;5.07;;;2.17;;
44670;SDS011;48397;53.016;-2.260;2022-07-06T11:24:45;2.80;;;1.10;;
44670;SDS011;48397;53.016;-2.260;2022-07-06T11:27:14;2.33;;;1.52;;
44670;SDS011;48397;53.016;-2.260;2022-07-06T11:29:42;4.15;;;2.03;;
44670;SDS011;48397;53.016;-2.260;2022-07-06T11:32:12;10.73;;;1.80;;
44670;SDS011;48397;53.016;-2.260;2022-07-06T11:34:42;2.20;;;1.10;;
44670;SDS011;48397;53.016;-2.260;2022-07-06T11:37:12;4.95;;;1.20;;
44670;SDS011;48397;53.016;-2.260;2022-07-06T11:39:45;2.65;;;1.42;;
44670;SDS011;48397;53.016;-2.260;2022-07-06T11:42:14;4.75;;;1.50;;
44670;SDS011;48397;53.016;-2.260;2022-07-06T11:44:46;3.28;;;1.40;;
44670;SDS011;48397;53.016;-2.260;2022-07-06T11:47:14;4.38;;;1.25;;
44670;SDS011;48397;53.016;-2.260;2022-07-06T11:49:50;4.75;;;1.65;;
44670;SDS011;48397;53.016;-2.260;2022-07-06T11:52:18;2.92;;;1.63;;
44670;SDS011;48397;53.016;-2.260;2022-07-06T11:54:46;4.32;;;1.95;;
44670;SDS011;48397;53.016;-2.260;2022-07-06T11:57:14;3.45;;;1.90;;
44670;SDS011;48397;53.016;-2.260;2022-07-06T11:59:42;2.40;;;1.45;;
44670;SDS011;48397;53.016;-2.260;2022-07-06T12:02:16;3.60;;;1.35;;
44670;SDS011;48397;53.016;-2.260;2022-07-06T12:04:45;3.63;;;1.55;;
44670;SDS011;48397;53.016;-2.260;2022-07-06T12:07:15;3.47;;;1.20;;
44670;SDS011;48397;53.016;-2.260;2022-07-06T12:09:44;3.13;;;1.55;;
44670;SDS011;48397;53.016;-2.260;2022-07-06T12:12:13;2.35;;;1.10;;
44670;SDS011;48397;53.016;-2.260;2022-07-06T12:14:43;3.42;;;1.17;;
44670;SDS011;48397;53.016;-2.260;2022-07-06T12:17:12;2.10;;;0.95;;
44670;SDS011;48397;53.016;-2.260;2022-07-06T12:19:42;3.53;;;1.20;;
44670;SDS011;48397;53.016;-2.260;2022-07-06T12:22:10;2.33;;;0.95;;
44670;SDS011;48397;53.016;-2.260;2022-07-06T12:24:41;8.90;;;2.33;;
44670;SDS011;48397;53.016;-2.260;2022-07-06T12:27:16;2.28;;;1.50;;
44670;SDS011;48397;53.016;-2.260;2022-07-06T12:29:46;5.95;;;1.73;;
44670;SDS011;48397;53.016;-2.260;2022-07-06T12:32:15;5.68;;;2.00;;
44670;SDS011;48397;53.016;-2.260;2022-07-06T12:34:47;5.40;;;1.73;;
44670;SDS011;48397;53.016;-2.260;2022-07-06T12:37:30;1.58;;;1.15;;
44670;SDS011;48397;53.016;-2.260;2022-07-06T12:39:58;3.03;;;1.60;;
44670;SDS011;48397;53.016;-2.260;2022-07-06T12:42:26;2.63;;;1.73;;
44670;SDS011;48397;53.016;-2.260;2022-07-06T12:44:55;3.78;;;1.75;;
44670;SDS011;48397;53.016;-2.260;2022-07-06T12:47:23;5.72;;;1.40;;
44670;SDS011;48397;53.016;-2.260;2022-07-06T12:50:04;3.00;;;1.25;;
44670;SDS011;48397;53.016;-2.260;2022-07-06T12:52:33;6.10;;;1.90;;
44670;SDS011;48397;53.016;-2.260;2022-07-06T12:55:02;2.40;;;1.33;;
44670;SDS011;48397;53.016;-2.260;2022-07-06T12:57:44;6.85;;;1.75;;
44670;SDS011;48397;53.016;-2.260;2022-07-06T13:00:14;1.67;;;0.90;;
44670;SDS011;48397;53.016;-2.260;2022-07-06T13:02:44;5.95;;;1.92;;
44670;SDS011;48397;53.016;-2.260;2022-07-06T13:05:33;3.95;;;1.77;;
44670;SDS011;48397;53.016;-2.260;2022-07-06T13:08:02;6.13;;;1.90;;
44670;SDS011;48397;53.016;-2.260;2022-07-06T13:10:30;8.07;;;1.80;;
44670;SDS011;48397;53.016;-2.260;2022-07-06T13:13:00;3.38;;;1.48;;
44670;SDS011;48397;53.016;-2.260;2022-07-06T13:15:28;2.95;;;1.42;;
44670;SDS011;48397;53.016;-2.260;2022-07-06T13:22:51;11.70;;;2.13;;
44670;SDS011;48397;53.016;-2.260;2022-07-06T13:25:19;16.17;;;2.25;;
44670;SDS011;48397;53.016;-2.260;2022-07-06T13:27:46;0.85;;;0.73;;
44670;SDS011;48397;53.016;-2.260;2022-07-06T13:30:14;2.17;;;1.10;;
44670;SDS011;48397;53.016;-2.260;2022-07-06T13:32:42;5.38;;;1.42;;
44670;SDS011;48397;53.016;-2.260;2022-07-06T13:35:10;2.05;;;0.95;;
44670;SDS011;48397;53.016;-2.260;2022-07-06T13:40:05;2.33;;;1.10;;
44670;SDS011;48397;53.016;-2.260;2022-07-06T13:42:33;4.88;;;1.13;;
44670;SDS011;48397;53.016;-2.260;2022-07-06T13:45:01;3.33;;;0.93;;
44670;SDS011;48397;53.016;-2.260;2022-07-06T13:47:29;2.35;;;0.93;;
44670;SDS011;48397;53.016;-2.260;2022-07-06T13:49:57;2.72;;;1.10;;
44670;SDS011;48397;53.016;-2.260;2022-07-06T13:52:24;5.38;;;1.15;;
44670;SDS011;48397;53.016;-2.260;2022-07-06T13:54:52;2.40;;;1.00;;
44670;SDS011;48397;53.016;-2.260;2022-07-06T13:57:27;3.38;;;0.93;;
44670;SDS011;48397;53.016;-2.260;2022-07-06T14:02:23;2.53;;;1.13;;
44670;SDS011;48397;53.016;-2.260;2022-07-06T14:07:19;3.00;;;1.40;;
44670;SDS011;48397;53.016;-2.260;2022-07-06T14:09:47;9.98;;;1.50;;
44670;SDS011;48397;53.016;-2.260;2022-07-06T14:12:19;1.55;;;0.90;;
44670;SDS011;48397;53.016;-2.260;2022-07-06T14:14:49;1.58;;;1.00;;
44670;SDS011;48397;53.016;-2.260;2022-07-06T14:17:17;3.50;;;1.45;;
44670;SDS011;48397;53.016;-2.260;2022-07-06T14:19:45;4.25;;;1.30;;
44670;SDS011;48397;53.016;-2.260;2022-07-06T14:22:12;2.03;;;0.98;;
44670;SDS011;48397;53.016;-2.260;2022-07-06T14:24:40;2.05;;;1.40;;
44670;SDS011;48397;53.016;-2.260;2022-07-06T14:27:08;2.67;;;1.00;;
44670;SDS011;48397;53.016;-2.260;2022-07-06T14:29:35;2.10;;;1.35;;
44670;SDS011;48397;53.016;-2.260;2022-07-06T14:32:03;3.15;;;1.15;;
44670;SDS011;48397;53.016;-2.260;2022-07-06T14:34:31;3.22;;;1.55;;
44670;SDS011;48397;53.016;-2.260;2022-07-06T14:36:59;8.88;;;1.60;;
44670;SDS011;48397;53.016;-2.260;2022-07-06T14:39:26;4.72;;;2.30;;
44670;SDS011;48397;53.016;-2.260;2022-07-06T14:41:54;2.70;;;1.10;;
44670;SDS011;48397;53.016;-2.260;2022-07-06T14:44:22;2.70;;;1.40;;
44670;SDS011;48397;53.016;-2.260;2022-07-06T14:46:49;11.05;;;2.47;;
44670;SDS011;48397;53.016;-2.260;2022-07-06T14:49:17;1.65;;;1.10;;
44670;SDS011;48397;53.016;-2.260;2022-07-06T14:51:47;1.98;;;1.17;;
44670;SDS011;48397;53.016;-2.260;2022-07-06T14:54:16;2.22;;;1.10;;
44670;SDS011;48397;53.016;-2.260;2022-07-06T14:56:43;3.65;;;1.40;;
44670;SDS011;48397;53.016;-2.260;2022-07-06T14:59:11;1.42;;;0.95;;
44670;SDS011;48397;53.016;-2.260;2022-07-06T15:01:50;4.50;;;1.15;;
44670;SDS011;48397;53.016;-2.260;2022-07-06T15:04:18;3.47;;;1.13;;
44670;SDS011;48397;53.016;-2.260;2022-07-06T15:06:46;3.85;;;1.10;;
44670;SDS011;48397;53.016;-2.260;2022-07-06T15:09:22;2.58;;;1.55;;
44670;SDS011;48397;53.016;-2.260;2022-07-06T15:11:50;0.90;;;0.70;;
44670;SDS011;48397;53.016;-2.260;2022-07-06T15:14:19;1.27;;;0.85;;
44670;SDS011;48397;53.016;-2.260;2022-07-06T15:19:15;5.57;;;1.10;;
44670;SDS011;48397;53.016;-2.260;2022-07-06T15:24:11;3.65;;;1.35;;
44670;SDS011;48397;53.016;-2.260;2022-07-06T15:26:39;3.38;;;1.52;;
44670;SDS011;48397;53.016;-2.260;2022-07-06T15:29:08;2.55;;;1.15;;
44670;SDS011;48397;53.016;-2.260;2022-07-06T15:31:36;3.42;;;1.50;;
44670;SDS011;48397;53.016;-2.260;2022-07-06T15:34:04;2.85;;;1.10;;
44670;SDS011;48397;53.016;-2.260;2022-07-06T15:36:31;4.57;;;1.30;;
44670;SDS011;48397;53.016;-2.260;2022-07-06T15:38:59;4.38;;;1.10;;
44670;SDS011;48397;53.016;-2.260;2022-07-06T15:41:27;3.60;;;1.50;;
44670;SDS011;48397;53.016;-2.260;2022-07-06T15:43:55;2.70;;;1.10;;
44670;SDS011;48397;53.016;-2.260;2022-07-06T15:46:23;2.95;;;1.50;;
44670;SDS011;48397;53.016;-2.260;2022-07-06T15:48:52;2.60;;;1.20;;
44670;SDS011;48397;53.016;-2.260;2022-07-06T15:51:19;1.85;;;1.00;;
44670;SDS011;48397;53.016;-2.260;2022-07-06T15:58:43;1.10;;;0.77;;
44670;SDS011;48397;53.016;-2.260;2022-07-06T16:03:39;2.28;;;1.40;;
44670;SDS011;48397;53.016;-2.260;2022-07-06T16:06:07;0.82;;;0.70;;
44670;SDS011;48397;53.016;-2.260;2022-07-06T16:08:38;1.58;;;0.90;;
44670;SDS011;48397;53.016;-2.260;2022-07-06T16:11:15;1.27;;;1.00;;